Time;durP1;ratioP1;P1;durP2;ratioP2;P2;SDS_P1;SDS_P2;PMS_P1;PMS_P2;Temp;Humidity;BMP_temperature;BMP_pressure;BME280_temperature;BME280_humidity;BME280_pressure;Samples;Min_cycle;Max_cycle;Signal;HPM_P1;HPM_P2
2021/01/13 00:00:21;;;;;;;56.95;50.33;;;;;;;;;;5057210;28;20067;-39
2021/01/13 00:02:46;;;;;;;62.38;50.75;;;;;;;;;;5058051;28;20091;-40
2021/01/13 00:05:15;;;;;;;54.33;45.35;;;;;;;;;;5063664;28;20016;-39
2021/01/13 00:07:43;;;;;;;62.92;51.00;;;;;;;;;;5060299;28;20029;-39
2021/01/13 00:10:10;;;;;;;54.92;49.03;;;;;;;;;;5056135;28;20021;-42
2021/01/13 00:12:36;;;;;;;58.38;51.70;;;;;;;;;;5061188;28;20054;-45
2021/01/13 00:15:01;;;;;;;61.30;52.83;;;;;;;;;;5058710;28;20491;-48
2021/01/13 00:17:26;;;;;;;56.75;47.78;;;;;;;;;;5062406;28;20115;-42
2021/01/13 00:19:52;;;;;;;59.25;46.95;;;;;;;;;;5062150;28;20116;-46
2021/01/13 00:22:17;;;;;;;61.03;54.63;;;;;;;;;;5063954;28;20028;-44
2021/01/13 00:24:43;;;;;;;74.55;64.35;;;;;;;;;;5067169;28;20157;-41
2021/01/13 00:27:08;;;;;;;67.28;55.08;;;;;;;;;;5057562;28;20399;-43
2021/01/13 00:29:33;;;;;;;48.55;43.60;;;;;;;;;;5061959;28;20112;-40
2021/01/13 00:31:59;;;;;;;51.88;46.20;;;;;;;;;;5062348;28;20032;-44
2021/01/13 00:34:25;;;;;;;68.45;49.10;;;;;;;;;;5067139;28;20537;-44
2021/01/13 00:36:50;;;;;;;66.35;51.35;;;;;;;;;;5061612;28;20028;-43
2021/01/13 00:39:16;;;;;;;54.20;48.20;;;;;;;;;;5055306;28;20160;-46
2021/01/13 00:41:41;;;;;;;75.35;55.08;;;;;;;;;;5065865;28;20036;-39
2021/01/13 00:44:07;;;;;;;57.83;51.67;;;;;;;;;;5061249;28;20036;-45
2021/01/13 00:46:38;;;;;;;65.53;56.05;;;;;;;;;;5061142;28;20099;-43
2021/01/13 00:49:04;;;;;;;;;;;;;;;;;;5057768;28;20036;-42
2021/01/13 00:51:36;;;;;;;58.00;49.90;;;;;;;;;;5057662;28;20264;-42
2021/01/13 00:54:01;;;;;;;59.65;52.90;;;;;;;;;;5055736;28;20258;-40
2021/01/13 00:56:26;;;;;;;66.00;54.88;;;;;;;;;;5062010;28;20028;-40
2021/01/13 00:58:52;;;;;;;59.33;50.03;;;;;;;;;;5056859;28;20440;-41
2021/01/13 01:01:17;;;;;;;60.35;52.72;;;;;;;;;;5055629;28;20112;-40
2021/01/13 01:03:42;;;;;;;58.50;52.30;;;;;;;;;;5056668;28;20032;-40
2021/01/13 01:06:11;;;;;;;58.63;49.58;;;;;;;;;;5058215;28;20025;-42
2021/01/13 01:08:36;;;;;;;62.45;51.40;;;;;;;;;;5061954;28;20032;-42
2021/01/13 01:11:02;;;;;;;41.65;36.53;;;;;;;;;;5055352;28;20093;-42
2021/01/13 01:13:27;;;;;;;46.17;41.58;;;;;;;;;;5056610;28;20029;-41
2021/01/13 01:15:52;;;;;;;59.65;41.20;;;;;;;;;;5068577;28;20464;-39
2021/01/13 01:18:17;;;;;;;49.95;39.95;;;;;;;;;;5062441;28;20032;-40
2021/01/13 01:20:43;;;;;;;67.38;42.90;;;;;;;;;;5059864;28;20037;-41
2021/01/13 01:23:08;;;;;;;64.22;53.45;;;;;;;;;;5059066;28;20490;-41
2021/01/13 01:25:33;;;;;;;75.85;62.78;;;;;;;;;;5057779;28;20036;-40
2021/01/13 01:28:00;;;;;;;71.90;61.97;;;;;;;;;;5059974;28;20036;-40
2021/01/13 01:30:26;;;;;;;67.18;59.92;;;;;;;;;;5056359;28;20058;-40
2021/01/13 01:32:51;;;;;;;70.32;55.53;;;;;;;;;;5056638;28;20029;-41
2021/01/13 01:35:16;;;;;;;62.47;51.33;;;;;;;;;;5054992;28;20025;-41
2021/01/13 01:37:42;;;;;;;58.20;48.83;;;;;;;;;;5057228;28;20544;-42
2021/01/13 01:40:09;;;;;;;59.53;48.80;;;;;;;;;;5054605;28;20508;-42
2021/01/13 01:42:35;;;;;;;58.40;49.25;;;;;;;;;;5057476;28;20021;-39
2021/01/13 01:45:00;;;;;;;56.28;49.63;;;;;;;;;;5053527;28;20671;-41
2021/01/13 01:47:46;;;;;;;62.75;50.78;;;;;;;;;;5057941;28;20040;-41
2021/01/13 01:50:11;;;;;;;55.20;49.55;;;;;;;;;;5054302;28;20044;-44
2021/01/13 01:52:40;;;;;;;60.65;54.13;;;;;;;;;;5055486;28;20029;-44
2021/01/13 01:55:11;;;;;;;66.68;53.08;;;;;;;;;;5059579;28;20399;-40
2021/01/13 01:57:37;;;;;;;74.00;55.35;;;;;;;;;;5057850;28;20062;-38
2021/01/13 02:00:04;;;;;;;66.13;53.17;;;;;;;;;;5058210;28;20496;-39
2021/01/13 02:02:34;;;;;;;58.75;52.53;;;;;;;;;;5060127;28;20497;-39
2021/01/13 02:05:01;;;;;;;68.03;54.13;;;;;;;;;;5060916;28;20029;-40
2021/01/13 02:07:33;;;;;;;60.95;49.47;;;;;;;;;;5056533;28;20043;-40
2021/01/13 02:10:01;;;;;;;59.08;46.67;;;;;;;;;;5057146;28;20081;-39
2021/01/13 02:12:33;;;;;;;55.67;47.05;;;;;;;;;;5062236;28;20581;-42
2021/01/13 02:15:00;;;;;;;54.42;44.25;;;;;;;;;;5055219;28;20103;-38
2021/01/13 02:17:29;;;;;;;52.65;43.10;;;;;;;;;;5062093;28;20069;-38
2021/01/13 02:19:55;;;;;;;40.33;35.08;;;;;;;;;;5061999;28;20085;-38
2021/01/13 02:22:21;;;;;;;44.72;36.50;;;;;;;;;;5054847;28;20032;-39
2021/01/13 02:25:05;;;;;;;47.38;37.80;;;;;;;;;;5057085;28;20251;-39
2021/01/13 02:27:49;;;;;;;41.20;34.58;;;;;;;;;;5059730;28;20040;-42
2021/01/13 02:30:16;;;;;;;39.40;32.63;;;;;;;;;;5062128;28;20531;-42
2021/01/13 02:32:45;;;;;;;33.70;28.13;;;;;;;;;;5061720;28;20035;-41
2021/01/13 02:35:15;;;;;;;26.75;24.00;;;;;;;;;;5055222;28;20108;-43
2021/01/13 02:37:44;;;;;;;37.25;27.42;;;;;;;;;;5060285;28;20047;-39
2021/01/13 02:40:12;;;;;;;36.05;28.13;;;;;;;;;;5057436;28;20044;-45
2021/01/13 02:42:38;;;;;;;35.10;31.42;;;;;;;;;;5062036;28;20033;-41
2021/01/13 02:45:06;;;;;;;40.83;30.90;;;;;;;;;;5054887;28;20091;-43
2021/01/13 02:47:50;;;;;;;39.38;30.05;;;;;;;;;;5057690;28;20041;-42
2021/01/13 02:50:24;;;;;;;50.85;44.25;;;;;;;;;;5055284;28;20025;-41
2021/01/13 02:53:10;;;;;;;60.05;43.53;;;;;;;;;;5057928;28;20047;-45
2021/01/13 02:55:36;;;;;;;48.70;39.47;;;;;;;;;;5052450;28;20098;-39
2021/01/13 02:58:05;;;;;;;53.97;45.30;;;;;;;;;;5053575;28;20072;-44
2021/01/13 03:00:31;;;;;;;55.83;44.83;;;;;;;;;;5054031;28;20036;-42
2021/01/13 03:02:57;;;;;;;56.78;47.25;;;;;;;;;;5059087;28;20029;-42
2021/01/13 03:05:23;;;;;;;54.55;46.38;;;;;;;;;;5056864;28;20016;-39
2021/01/13 03:07:53;;;;;;;59.35;49.08;;;;;;;;;;5058932;28;20036;-42
2021/01/13 03:10:19;;;;;;;51.67;43.15;;;;;;;;;;5094296;28;20030;-43
2021/01/13 03:12:47;;;;;;;50.78;45.63;;;;;;;;;;5057307;28;20036;-40
2021/01/13 03:15:13;;;;;;;31.80;28.27;;;;;;;;;;5065110;28;20560;-39
2021/01/13 03:17:41;;;;;;;54.83;38.45;;;;;;;;;;5062097;28;20064;-39
2021/01/13 03:20:24;;;;;;;44.20;39.42;;;;;;;;;;5065039;28;20024;-40
2021/01/13 03:22:55;;;;;;;49.22;37.50;;;;;;;;;;5063579;28;20489;-41
2021/01/13 03:25:22;;;;;;;52.47;39.70;;;;;;;;;;5064711;28;20462;-40
2021/01/13 03:27:48;;;;;;;55.53;40.75;;;;;;;;;;5063032;28;20040;-42
2021/01/13 03:30:14;;;;;;;66.07;43.28;;;;;;;;;;5064771;28;20024;-44
2021/01/13 03:32:58;;;;;;;50.40;38.22;;;;;;;;;;5061632;28;20033;-42
2021/01/13 03:35:32;;;;;;;63.95;41.90;;;;;;;;;;5063628;28;20463;-42
2021/01/13 03:38:00;;;;;;;43.13;35.75;;;;;;;;;;5064156;28;20033;-41
2021/01/13 03:40:31;;;;;;;43.28;38.67;;;;;;;;;;5063186;28;20035;-42
2021/01/13 03:42:57;;;;;;;45.90;37.95;;;;;;;;;;5063749;28;20048;-40
2021/01/13 03:45:23;;;;;;;40.30;34.97;;;;;;;;;;5064570;28;20478;-42
2021/01/13 03:48:14;;;;;;;41.42;35.53;;;;;;;;;;5058881;28;20032;-42
2021/01/13 03:50:43;;;;;;;46.65;35.88;;;;;;;;;;5047435;28;20032;-40
2021/01/13 03:53:10;;;;;;;52.85;37.33;;;;;;;;;;5057415;28;20041;-42
2021/01/13 03:55:37;;;;;;;45.45;39.70;;;;;;;;;;5059683;28;20478;-45
2021/01/13 03:58:25;;;;;;;41.20;36.88;;;;;;;;;;5060949;28;20081;-41
2021/01/13 04:00:59;;;;;;;41.15;37.05;;;;;;;;;;5045271;28;20470;-40
2021/01/13 04:03:26;;;;;;;38.00;33.45;;;;;;;;;;5065994;28;20048;-40
2021/01/13 04:06:01;;;;;;;40.30;33.90;;;;;;;;;;5062712;28;20074;-41
2021/01/13 04:08:32;;;;;;;36.13;32.28;;;;;;;;;;5062871;28;20745;-40
2021/01/13 04:10:58;;;;;;;34.60;29.75;;;;;;;;;;5063897;28;20081;-41
2021/01/13 04:13:49;;;;;;;41.40;30.70;;;;;;;;;;5063222;28;20040;-43
2021/01/13 04:16:16;;;;;;;36.42;31.05;;;;;;;;;;5055814;28;20041;-40
2021/01/13 04:18:43;;;;;;;39.28;33.05;;;;;;;;;;5060942;28;20484;-41
2021/01/13 04:21:11;;;;;;;29.13;26.17;;;;;;;;;;5063902;28;20031;-40
2021/01/13 04:23:37;;;;;;;33.22;27.40;;;;;;;;;;5058332;28;20035;-41
2021/01/13 04:26:03;;;;;;;34.47;29.65;;;;;;;;;;5056328;28;20381;-41
2021/01/13 04:28:28;;;;;;;31.15;27.98;;;;;;;;;;5057795;28;20082;-41
2021/01/13 04:30:54;;;;;;;33.13;29.73;;;;;;;;;;5057446;28;20111;-40
2021/01/13 04:33:20;;;;;;;38.70;29.27;;;;;;;;;;5056553;28;20032;-42
2021/01/13 04:35:45;;;;;;;34.33;28.35;;;;;;;;;;5058197;28;20656;-42
2021/01/13 04:38:11;;;;;;;34.15;30.60;;;;;;;;;;5059416;28;20033;-43
2021/01/13 04:40:37;;;;;;;34.78;28.60;;;;;;;;;;5058599;28;20053;-41
2021/01/13 04:43:04;;;;;;;33.90;29.20;;;;;;;;;;5057131;28;20110;-42
2021/01/13 04:45:32;;;;;;;31.65;27.25;;;;;;;;;;5061302;28;20448;-40
2021/01/13 04:48:02;;;;;;;33.15;28.05;;;;;;;;;;5057923;28;20040;-44
2021/01/13 04:50:31;;;;;;;32.97;28.38;;;;;;;;;;5061743;28;20028;-40
2021/01/13 04:52:58;;;;;;;33.33;28.55;;;;;;;;;;5062707;28;20155;-47
2021/01/13 04:55:27;;;;;;;35.55;30.05;;;;;;;;;;5062071;28;20024;-41
2021/01/13 04:58:24;;;;;;;33.05;29.05;;;;;;;;;;5061704;28;20033;-46
2021/01/13 05:00:56;;;;;;;39.30;28.50;;;;;;;;;;5061702;28;20029;-40
2021/01/13 05:03:37;;;;;;;32.90;29.45;;;;;;;;;;5062973;28;20428;-41
2021/01/13 05:06:17;;;;;;;30.97;27.73;;;;;;;;;;5058039;28;20032;-42
2021/01/13 05:08:52;;;;;;;28.90;25.95;;;;;;;;;;5054813;28;20258;-41
2021/01/13 05:11:19;;;;;;;33.05;25.05;;;;;;;;;;5063866;28;20046;-43
2021/01/13 05:13:46;;;;;;;25.27;22.75;;;;;;;;;;5061203;28;20036;-43
2021/01/13 05:16:12;;;;;;;27.13;23.25;;;;;;;;;;5063005;28;20119;-45
2021/01/13 05:18:49;;;;;;;28.80;24.58;;;;;;;;;;5059628;28;20538;-40
2021/01/13 05:21:19;;;;;;;34.03;25.10;;;;;;;;;;5060894;28;20033;-42
2021/01/13 05:23:44;;;;;;;30.52;27.40;;;;;;;;;;5060305;28;20033;-40
2021/01/13 05:26:15;;;;;;;35.28;26.55;;;;;;;;;;5062515;28;20032;-41
2021/01/13 05:28:51;;;;;;;28.08;22.25;;;;;;;;;;5060081;28;20041;-42
2021/01/13 05:31:23;;;;;;;24.23;18.23;;;;;;;;;;5062674;28;20052;-41
2021/01/13 05:33:48;;;;;;;18.45;15.98;;;;;;;;;;5060433;28;20079;-41
2021/01/13 05:36:14;;;;;;;22.42;18.73;;;;;;;;;;5061106;28;20040;-44
2021/01/13 05:38:45;;;;;;;27.05;19.45;;;;;;;;;;5059706;28;20056;-40
2021/01/13 05:41:14;;;;;;;24.05;18.92;;;;;;;;;;5061303;28;20028;-48
2021/01/13 05:43:43;;;;;;;20.60;18.52;;;;;;;;;;5061923;28;20111;-43
2021/01/13 05:46:10;;;;;;;24.02;21.45;;;;;;;;;;5057122;28;20049;-46
2021/01/13 05:48:39;;;;;;;27.33;21.30;;;;;;;;;;5057306;28;20587;-42
2021/01/13 05:51:04;;;;;;;24.52;21.90;;;;;;;;;;5058916;28;20028;-45
2021/01/13 05:53:30;;;;;;;25.67;21.98;;;;;;;;;;5057950;28;20028;-44
2021/01/13 05:55:55;;;;;;;25.00;22.23;;;;;;;;;;5064286;28;20039;-43
2021/01/13 05:58:23;;;;;;;21.73;19.50;;;;;;;;;;5055530;28;20036;-44
2021/01/13 06:00:50;;;;;;;24.52;22.02;;;;;;;;;;5056239;28;20443;-43
2021/01/13 06:03:19;;;;;;;24.10;18.73;;;;;;;;;;5051800;28;20024;-43
2021/01/13 06:05:49;;;;;;;20.63;18.65;;;;;;;;;;5062037;28;20052;-43
2021/01/13 06:08:15;;;;;;;22.52;20.05;;;;;;;;;;5057472;28;20131;-42
2021/01/13 06:10:40;;;;;;;24.75;19.88;;;;;;;;;;5053968;28;20206;-41
2021/01/13 06:13:06;;;;;;;30.77;25.75;;;;;;;;;;5062142;28;20028;-48
2021/01/13 06:15:33;;;;;;;40.90;36.00;;;;;;;;;;5057520;28;20126;-43
2021/01/13 06:17:58;;;;;;;37.88;28.08;;;;;;;;;;5061269;28;20538;-42
2021/01/13 06:20:25;;;;;;;34.60;28.77;;;;;;;;;;5058543;28;20104;-42
2021/01/13 06:22:51;;;;;;;30.75;21.58;;;;;;;;;;5059894;28;20033;-47
2021/01/13 06:25:20;;;;;;;23.33;20.98;;;;;;;;;;5061529;28;20380;-45
2021/01/13 06:27:57;;;;;;;29.00;23.27;;;;;;;;;;5055889;28;20029;-42
2021/01/13 06:30:39;;;;;;;27.55;24.50;;;;;;;;;;5061062;28;20028;-43
2021/01/13 06:33:06;;;;;;;39.53;34.35;;;;;;;;;;5054190;28;20036;-48
2021/01/13 06:35:31;;;;;;;27.40;24.65;;;;;;;;;;5052539;28;20124;-40
2021/01/13 06:37:58;;;;;;;22.70;20.45;;;;;;;;;;5055627;28;20123;-41
2021/01/13 06:40:23;;;;;;;34.08;19.58;;;;;;;;;;5065210;28;20037;-42
2021/01/13 06:42:48;;;;;;;20.65;18.83;;;;;;;;;;5065542;28;20037;-42
2021/01/13 06:45:28;;;;;;;23.48;21.17;;;;;;;;;;5065804;28;20411;-44
2021/01/13 06:47:55;;;;;;;30.17;23.40;;;;;;;;;;5065058;28;20083;-48
2021/01/13 06:50:46;;;;;;;29.20;17.02;;;;;;;;;;5061932;28;20031;-46
2021/01/13 06:53:12;;;;;;;23.35;15.77;;;;;;;;;;5056795;28;20049;-46
2021/01/13 06:55:38;;;;;;;26.50;18.13;;;;;;;;;;5060930;28;20085;-40
2021/01/13 06:58:11;;;;;;;15.02;13.60;;;;;;;;;;5061492;28;20032;-44
2021/01/13 07:00:40;;;;;;;16.73;15.15;;;;;;;;;;5060621;28;20029;-44
2021/01/13 07:03:30;;;;;;;19.23;16.70;;;;;;;;;;5065174;28;20069;-43
2021/01/13 07:05:56;;;;;;;27.50;13.50;;;;;;;;;;5067325;28;20056;-42
2021/01/13 07:08:21;;;;;;;25.27;18.52;;;;;;;;;;5064387;28;20032;-43
2021/01/13 07:10:47;;;;;;;34.88;23.05;;;;;;;;;;5063201;28;20035;-44
2021/01/13 07:13:13;;;;;;;28.20;25.52;;;;;;;;;;5062057;28;20033;-43
2021/01/13 07:15:39;;;;;;;21.70;19.40;;;;;;;;;;5060779;28;20032;-49
2021/01/13 07:18:04;;;;;;;23.05;16.88;;;;;;;;;;5057372;28;20110;-51
2021/01/13 07:20:37;;;;;;;21.80;17.30;;;;;;;;;;5059681;28;20025;-48
2021/01/13 07:23:02;;;;;;;34.72;18.05;;;;;;;;;;5062020;28;20035;-44
2021/01/13 07:25:28;;;;;;;19.90;15.57;;;;;;;;;;5062459;28;20041;-43
2021/01/13 07:27:53;;;;;;;18.08;12.98;;;;;;;;;;5061765;28;20032;-44
2021/01/13 07:30:19;;;;;;;24.08;16.45;;;;;;;;;;5062887;28;20077;-46
2021/01/13 07:32:51;;;;;;;23.50;19.05;;;;;;;;;;5062661;28;20032;-45
2021/01/13 07:35:17;;;;;;;24.33;17.90;;;;;;;;;;5060168;28;20012;-43
2021/01/13 07:38:03;;;;;;;33.83;17.52;;;;;;;;;;5065274;28;20479;-48
2021/01/13 07:40:28;;;;;;;26.35;16.63;;;;;;;;;;5066446;28;20035;-43
2021/01/13 07:43:02;;;;;;;18.65;16.58;;;;;;;;;;5060983;28;20032;-48
2021/01/13 07:45:29;;;;;;;23.17;17.13;;;;;;;;;;5060854;28;20052;-45
2021/01/13 07:47:57;;;;;;;25.83;23.17;;;;;;;;;;5062113;28;20485;-42
2021/01/13 07:50:23;;;;;;;32.97;25.10;;;;;;;;;;5056222;28;20036;-45
2021/01/13 07:52:49;;;;;;;33.42;29.05;;;;;;;;;;5061710;28;20032;-42
2021/01/13 07:55:17;;;;;;;30.10;21.20;;;;;;;;;;5064035;28;20095;-46
2021/01/13 07:57:46;;;;;;;24.10;19.95;;;;;;;;;;5065087;28;20479;-44
2021/01/13 08:00:13;;;;;;;30.38;22.67;;;;;;;;;;5067761;28;20191;-45
2021/01/13 08:02:42;;;;;;;30.02;26.95;;;;;;;;;;5063056;28;20116;-46
2021/01/13 08:05:16;;;;;;;39.00;29.77;;;;;;;;;;5067588;28;20020;-45
2021/01/13 08:07:41;;;;;;;41.00;26.38;;;;;;;;;;5062034;28;20033;-43
2021/01/13 08:10:07;;;;;;;28.80;25.75;;;;;;;;;;5054311;28;20380;-43
2021/01/13 08:12:45;;;;;;;23.25;19.30;;;;;;;;;;5066375;28;20029;-45
2021/01/13 08:15:22;;;;;;;26.10;21.55;;;;;;;;;;5060670;28;20024;-44
2021/01/13 08:18:01;;;;;;;58.28;48.97;;;;;;;;;;5063889;28;20095;-42
2021/01/13 08:20:37;;;;;;;45.65;40.83;;;;;;;;;;5060607;28;20033;-42
2021/01/13 08:23:11;;;;;;;56.40;39.92;;;;;;;;;;5058634;28;20143;-44
2021/01/13 08:25:39;;;;;;;35.53;27.38;;;;;;;;;;5061851;28;20077;-45
2021/01/13 08:28:08;;;;;;;35.63;24.63;;;;;;;;;;5059504;28;20033;-46
2021/01/13 08:30:35;;;;;;;33.65;29.98;;;;;;;;;;5061678;28;20034;-43
2021/01/13 08:33:01;;;;;;;34.53;29.23;;;;;;;;;;5059627;28;20028;-45
2021/01/13 08:35:35;;;;;;;46.83;36.58;;;;;;;;;;5060608;28;20017;-43
2021/01/13 08:38:10;;;;;;;30.05;22.73;;;;;;;;;;5062571;28;20460;-46
2021/01/13 08:40:37;;;;;;;30.58;18.50;;;;;;;;;;5061909;28;20032;-43
2021/01/13 08:43:06;;;;;;;45.53;21.05;;;;;;;;;;5059212;28;20048;-47
2021/01/13 08:45:32;;;;;;;29.73;24.30;;;;;;;;;;5062821;28;20364;-46
2021/01/13 08:48:20;;;;;;;33.28;25.05;;;;;;;;;;5056780;28;20467;-41
2021/01/13 08:51:06;;;;;;;31.42;27.58;;;;;;;;;;5059563;28;20426;-42
2021/01/13 08:53:35;;;;;;;48.28;29.98;;;;;;;;;;5061022;28;20033;-46
2021/01/13 08:56:01;;;;;;;56.85;28.05;;;;;;;;;;5059181;28;20079;-41
2021/01/13 08:58:32;;;;;;;47.90;37.00;;;;;;;;;;5062612;28;20466;-51
2021/01/13 09:01:10;;;;;;;93.43;67.95;;;;;;;;;;5064384;28;20028;-53
2021/01/13 09:03:37;;;;;;;102.75;66.97;;;;;;;;;;5062235;28;20032;-53
2021/01/13 09:06:21;;;;;;;61.97;49.50;;;;;;;;;;5065092;28;20395;-55
2021/01/13 09:08:50;;;;;;;68.07;45.97;;;;;;;;;;5062578;28;20033;-54
2021/01/13 09:11:30;;;;;;;44.85;39.63;;;;;;;;;;5065111;28;20036;-56
2021/01/13 09:13:55;;;;;;;41.30;30.30;;;;;;;;;;5064945;28;20513;-55
2021/01/13 09:16:26;;;;;;;44.05;32.20;;;;;;;;;;5065559;28;20024;-53
2021/01/13 09:18:55;;;;;;;16.63;14.88;;;;;;;;;;5064653;28;20467;-55
2021/01/13 09:21:27;;;;;;;19.73;14.75;;;;;;;;;;5065245;28;20024;-52
2021/01/13 09:23:57;;;;;;;15.30;10.70;;;;;;;;;;5068279;28;20048;-49
2021/01/13 09:26:27;;;;;;;14.02;9.95;;;;;;;;;;5069566;28;20102;-55
2021/01/13 09:29:00;;;;;;;14.93;13.30;;;;;;;;;;5069685;28;20111;-53
2021/01/13 09:31:26;;;;;;;53.03;40.35;;;;;;;;;;5067606;28;20028;-55
2021/01/13 09:33:51;;;;;;;44.97;38.30;;;;;;;;;;5069638;28;20084;-52
2021/01/13 09:36:17;;;;;;;44.17;39.38;;;;;;;;;;5068151;28;20522;-52
2021/01/13 09:38:44;;;;;;;40.30;30.73;;;;;;;;;;5057192;28;20028;-55
2021/01/13 09:41:20;;;;;;;24.27;12.07;;;;;;;;;;5065295;28;20103;-55
2021/01/13 09:43:45;;;;;;;13.85;9.10;;;;;;;;;;5059755;28;20024;-53
2021/01/13 09:46:23;;;;;;;13.35;9.23;;;;;;;;;;5059892;28;20065;-55
2021/01/13 09:48:58;;;;;;;9.68;6.50;;;;;;;;;;5061629;28;20131;-54
2021/01/13 09:51:25;;;;;;;9.25;5.93;;;;;;;;;;5060226;28;20533;-54
2021/01/13 09:53:52;;;;;;;6.25;4.57;;;;;;;;;;5054978;28;20031;-56
2021/01/13 09:56:18;;;;;;;5.80;5.18;;;;;;;;;;5062041;28;20044;-54
2021/01/13 09:58:52;;;;;;;5.53;4.05;;;;;;;;;;5061058;28;20424;-54
2021/01/13 10:01:22;;;;;;;7.47;5.38;;;;;;;;;;5062174;28;20107;-55
2021/01/13 10:03:48;;;;;;;18.35;9.95;;;;;;;;;;5061677;28;20121;-57
2021/01/13 10:06:15;;;;;;;17.27;8.48;;;;;;;;;;5062205;28;20028;-54
2021/01/13 10:08:40;;;;;;;16.58;10.63;;;;;;;;;;5060578;28;20066;-56
2021/01/13 10:11:06;;;;;;;17.45;11.35;;;;;;;;;;5064272;28;20060;-55
2021/01/13 10:13:31;;;;;;;76.63;61.60;;;;;;;;;;5062284;28;20470;-57
2021/01/13 10:16:00;;;;;;;15.65;12.13;;;;;;;;;;5064016;28;20106;-56
2021/01/13 10:18:26;;;;;;;19.98;15.25;;;;;;;;;;5063957;28;20145;-56
2021/01/13 10:20:55;;;;;;;15.63;9.02;;;;;;;;;;5061865;28;20029;-56
2021/01/13 10:23:24;;;;;;;30.33;24.27;;;;;;;;;;5062358;28;20017;-55
2021/01/13 10:25:49;;;;;;;34.28;27.33;;;;;;;;;;5058709;28;20029;-57
2021/01/13 10:28:15;;;;;;;20.80;18.50;;;;;;;;;;5056313;28;20025;-56
2021/01/13 10:30:41;;;;;;;27.65;20.38;;;;;;;;;;5059935;28;20056;-54
2021/01/13 10:33:06;;;;;;;30.77;18.75;;;;;;;;;;5055875;28;20056;-56
2021/01/13 10:35:38;;;;;;;15.52;10.05;;;;;;;;;;5057474;28;20067;-57
2021/01/13 10:38:04;;;;;;;14.98;10.02;;;;;;;;;;5056651;28;20036;-56
2021/01/13 10:40:29;;;;;;;11.35;9.15;;;;;;;;;;5058939;28;20104;-54
2021/01/13 10:42:55;;;;;;;26.15;15.07;;;;;;;;;;5058034;28;20021;-53
2021/01/13 10:45:21;;;;;;;35.33;20.08;;;;;;;;;;5057076;28;20391;-56
2021/01/13 10:47:54;;;;;;;51.58;26.90;;;;;;;;;;5058284;28;20025;-56
2021/01/13 10:50:27;;;;;;;16.02;14.35;;;;;;;;;;5056857;28;20029;-55
2021/01/13 10:52:59;;;;;;;14.55;12.20;;;;;;;;;;5057513;28;20064;-58
2021/01/13 10:55:26;;;;;;;15.32;12.38;;;;;;;;;;5057284;28;20033;-51
2021/01/13 10:57:51;;;;;;;19.60;13.20;;;;;;;;;;5058475;28;20032;-53
2021/01/13 11:00:17;;;;;;;12.20;7.20;;;;;;;;;;5056730;28;20391;-54
2021/01/13 11:02:52;;;;;;;18.17;8.90;;;;;;;;;;5059929;28;20085;-55
2021/01/13 11:05:17;;;;;;;9.98;7.97;;;;;;;;;;5055175;28;20036;-61
2021/01/13 11:07:43;;;;;;;15.73;7.22;;;;;;;;;;5063453;28;20028;-58
2021/01/13 11:10:10;;;;;;;21.10;15.57;;;;;;;;;;5062153;28;20016;-60
2021/01/13 11:12:36;;;;;;;12.25;6.28;;;;;;;;;;5059144;28;20569;-59
2021/01/13 11:15:03;;;;;;;17.52;8.57;;;;;;;;;;5062022;28;20016;-55
2021/01/13 11:17:30;;;;;;;7.85;7.07;;;;;;;;;;5057965;28;20040;-56
2021/01/13 11:19:56;;;;;;;13.10;6.65;;;;;;;;;;5061278;28;20021;-53
2021/01/13 11:22:44;;;;;;;7.90;5.78;;;;;;;;;;5060071;28;20052;-53
2021/01/13 11:25:33;;;;;;;11.85;9.13;;;;;;;;;;5060594;28;20040;-52
2021/01/13 11:28:00;;;;;;;16.10;6.90;;;;;;;;;;5064843;28;20029;-58
2021/01/13 11:30:26;;;;;;;6.88;5.35;;;;;;;;;;5064427;28;20036;-58
2021/01/13 11:32:52;;;;;;;13.95;8.55;;;;;;;;;;5063447;28;20029;-57
2021/01/13 11:35:25;;;;;;;19.58;8.75;;;;;;;;;;5064993;28;20236;-56
2021/01/13 11:37:51;;;;;;;31.40;23.23;;;;;;;;;;5058441;28;20043;-57
2021/01/13 11:40:17;;;;;;;21.65;13.40;;;;;;;;;;5061316;28;20040;-55
2021/01/13 11:43:00;;;;;;;10.65;8.13;;;;;;;;;;5062453;28;20064;-55
2021/01/13 11:45:28;;;;;;;10.75;7.00;;;;;;;;;;5063745;28;20056;-53
2021/01/13 11:47:54;;;;;;;16.13;5.32;;;;;;;;;;5063539;28;20044;-58
2021/01/13 11:50:24;;;;;;;6.60;5.32;;;;;;;;;;5064903;28;20020;-57
2021/01/13 11:53:02;;;;;;;8.52;3.17;;;;;;;;;;5062573;28;20055;-57
2021/01/13 11:55:30;;;;;;;6.75;4.80;;;;;;;;;;5064235;28;20024;-58
2021/01/13 11:57:56;;;;;;;4.28;2.47;;;;;;;;;;5064141;28;20055;-58
2021/01/13 12:00:24;;;;;;;7.45;5.57;;;;;;;;;;5061049;28;20409;-58
2021/01/13 12:02:50;;;;;;;10.20;7.28;;;;;;;;;;5064642;28;20083;-58
2021/01/13 12:05:25;;;;;;;8.88;4.25;;;;;;;;;;5065010;28;20016;-58
2021/01/13 12:07:57;;;;;;;5.75;3.42;;;;;;;;;;5062624;28;20036;-53
2021/01/13 12:10:22;;;;;;;9.63;5.60;;;;;;;;;;5063680;28;20091;-55
2021/01/13 12:12:48;;;;;;;4.28;2.75;;;;;;;;;;5062115;28;20475;-55
2021/01/13 12:15:14;;;;;;;14.98;9.27;;;;;;;;;;5064709;28;20028;-54
2021/01/13 12:17:49;;;;;;;20.70;7.00;;;;;;;;;;5061455;28;20033;-49
2021/01/13 12:20:27;;;;;;;5.65;2.70;;;;;;;;;;5060814;28;20066;-53
2021/01/13 12:22:53;;;;;;;5.57;3.60;;;;;;;;;;5063009;28;20021;-54
2021/01/13 12:25:23;;;;;;;8.73;6.28;;;;;;;;;;5063486;28;20028;-51
2021/01/13 12:27:48;;;;;;;9.37;7.00;;;;;;;;;;5058445;28;20059;-50
2021/01/13 12:30:14;;;;;;;9.80;4.40;;;;;;;;;;5064577;28;20100;-52
2021/01/13 12:32:40;;;;;;;6.53;4.15;;;;;;;;;;5061003;28;20033;-54
2021/01/13 12:35:06;;;;;;;8.65;3.33;;;;;;;;;;5063408;28;20080;-48
2021/01/13 12:37:43;;;;;;;6.95;3.30;;;;;;;;;;5061616;28;20072;-52
2021/01/13 12:40:08;;;;;;;7.90;4.32;;;;;;;;;;5059352;28;20024;-53
2021/01/13 12:42:34;;;;;;;10.95;5.55;;;;;;;;;;5061488;28;20646;-55
2021/01/13 12:45:00;;;;;;;7.93;6.07;;;;;;;;;;5062995;28;20522;-53
2021/01/13 12:47:28;;;;;;;7.88;5.53;;;;;;;;;;5062235;28;20078;-52
2021/01/13 12:49:56;;;;;;;6.63;4.20;;;;;;;;;;5062657;28;20042;-48
2021/01/13 12:52:22;;;;;;;10.05;2.25;;;;;;;;;;5057642;28;20043;-49
2021/01/13 12:54:47;;;;;;;9.80;3.33;;;;;;;;;;5058945;28;20230;-55
2021/01/13 12:57:12;;;;;;;7.78;2.20;;;;;;;;;;5058041;28;20132;-52
2021/01/13 12:59:39;;;;;;;7.20;3.25;;;;;;;;;;5061069;28;20382;-52
2021/01/13 13:02:04;;;;;;;6.95;3.13;;;;;;;;;;5057934;28;20723;-53
2021/01/13 13:04:30;;;;;;;4.93;2.38;;;;;;;;;;5060218;28;20072;-51
2021/01/13 13:06:55;;;;;;;4.10;1.95;;;;;;;;;;5069342;28;20027;-53
2021/01/13 13:09:20;;;;;;;7.65;2.33;;;;;;;;;;5070132;28;20021;-48
2021/01/13 13:11:46;;;;;;;9.35;3.00;;;;;;;;;;5066930;28;20066;-52
2021/01/13 13:14:12;;;;;;;7.68;1.88;;;;;;;;;;5057788;28;20029;-49
2021/01/13 13:16:37;;;;;;;3.85;2.53;;;;;;;;;;5063981;28;20032;-50
2021/01/13 13:19:03;;;;;;;5.38;1.88;;;;;;;;;;5068259;28;20028;-49
2021/01/13 13:21:28;;;;;;;3.95;2.17;;;;;;;;;;5068334;28;20074;-55
2021/01/13 13:23:54;;;;;;;4.65;2.60;;;;;;;;;;5068668;28;20095;-53
2021/01/13 13:26:20;;;;;;;5.75;3.25;;;;;;;;;;5069239;28;20081;-49
2021/01/13 13:28:45;;;;;;;1.92;1.73;;;;;;;;;;5068915;28;20103;-56
2021/01/13 13:31:14;;;;;;;2.47;1.73;;;;;;;;;;5069077;28;20024;-48
2021/01/13 13:33:40;;;;;;;5.22;2.05;;;;;;;;;;5068152;28;20093;-51
2021/01/13 13:36:05;;;;;;;3.83;2.17;;;;;;;;;;5068476;28;20447;-55
2021/01/13 13:38:31;;;;;;;15.15;12.25;;;;;;;;;;5068518;28;20032;-53
2021/01/13 13:40:56;;;;;;;4.97;2.60;;;;;;;;;;5059138;28;20029;-54
2021/01/13 13:43:21;;;;;;;5.35;2.55;;;;;;;;;;5063238;28;20024;-55
2021/01/13 13:45:47;;;;;;;2.53;1.50;;;;;;;;;;5064544;28;20395;-56
2021/01/13 13:48:12;;;;;;;1.35;1.08;;;;;;;;;;5065791;28;20021;-55
2021/01/13 13:50:37;;;;;;;8.70;4.55;;;;;;;;;;5064782;28;20044;-55
2021/01/13 13:53:04;;;;;;;7.32;5.80;;;;;;;;;;5065151;28;20158;-56
2021/01/13 13:55:30;;;;;;;7.93;6.15;;;;;;;;;;5063405;28;20437;-58
2021/01/13 13:57:57;;;;;;;9.38;6.70;;;;;;;;;;5065252;28;20518;-55
2021/01/13 14:00:22;;;;;;;12.07;6.25;;;;;;;;;;5064412;28;20021;-56
2021/01/13 14:02:48;;;;;;;13.90;5.75;;;;;;;;;;5063408;28;20048;-56
2021/01/13 14:05:13;;;;;;;5.25;4.75;;;;;;;;;;5063000;28;20108;-55
2021/01/13 14:07:38;;;;;;;6.70;4.90;;;;;;;;;;5062813;28;20032;-53
2021/01/13 14:10:04;;;;;;;8.40;6.30;;;;;;;;;;5056772;28;20048;-57
2021/01/13 14:12:30;;;;;;;8.48;5.30;;;;;;;;;;5061933;28;20161;-57
2021/01/13 14:14:55;;;;;;;6.95;4.90;;;;;;;;;;5056760;28;20612;-57
2021/01/13 14:17:20;;;;;;;12.15;5.15;;;;;;;;;;5065937;28;20032;-56
2021/01/13 14:19:46;;;;;;;6.93;5.18;;;;;;;;;;5048397;28;20017;-56
2021/01/13 14:22:11;;;;;;;13.63;4.20;;;;;;;;;;5060657;28;20028;-57
2021/01/13 14:24:36;;;;;;;4.10;2.25;;;;;;;;;;5058782;28;20783;-55
2021/01/13 14:27:02;;;;;;;6.05;2.70;;;;;;;;;;5059274;28;20055;-54
2021/01/13 14:29:28;;;;;;;2.97;1.95;;;;;;;;;;5063631;28;20039;-53
2021/01/13 14:31:53;;;;;;;9.20;2.20;;;;;;;;;;5059037;28;20029;-52